Time;durP1;ratioP1;P1;durP2;ratioP2;P2;SDS_P1;SDS_P2;PMS_P1;PMS_P2;Temp;Humidity;BMP_temperature;BMP_pressure;BME280_temperature;BME280_humidity;BME280_pressure;Samples;Min_cycle;Max_cycle;Signal;HPM_P1;HPM_P2
2023/03/10 00:01:29;;;;;;;;;34.80;32.00;;;;;10.88;61.29;97188.09;6304102;27;96326;-60
2023/03/10 00:04:32;;;;;;;;;37.20;32.80;;;;;10.90;61.23;97189.44;6337544;27;96314;-60
2023/03/10 00:07:36;;;;;;;;;34.40;31.60;;;;;10.91;61.32;97176.78;6265839;27;98676;-60
2023/03/10 00:10:40;;;;;;;;;38.40;33.00;;;;;10.91;61.20;97176.78;6218486;28;96479;-59
2023/03/10 00:13:44;;;;;;;;;36.00;31.40;;;;;10.92;61.20;97170.31;6231502;27;97576;-61
2023/03/10 00:16:47;;;;;;;;;35.60;32.40;;;;;10.94;61.25;97174.38;6298392;27;96352;-60
2023/03/10 00:19:50;;;;;;;;;47.75;36.50;;;;;10.78;61.37;97134.97;6290353;27;96207;-60
2023/03/10 00:22:54;;;;;;;;;41.40;34.40;;;;;11.02;61.32;97160.38;6267807;27;96852;-60
2023/03/10 00:26:00;;;;;;;;;38.40;33.00;;;;;11.06;61.37;97156.06;6291152;27;96529;-59
2023/03/10 00:29:04;;;;;;;;;38.60;33.00;;;;;11.05;61.43;97162.53;6302465;27;96245;-60
2023/03/10 00:32:08;;;;;;;;;34.00;31.00;;;;;11.08;61.52;97153.09;6224621;27;96208;-58
2023/03/10 00:35:11;;;;;;;;;40.40;34.40;;;;;11.10;61.42;97150.94;6258557;27;96872;-59
2023/03/10 00:38:14;;;;;;;;;42.40;35.00;;;;;11.13;61.39;97150.41;6249914;27;96223;-59
2023/03/10 00:41:22;;;;;;;;;35.60;30.00;;;;;11.12;61.22;97154.19;6262773;27;96420;-60
2023/03/10 00:44:28;;;;;;;;;37.50;32.75;;;;;11.00;61.26;97130.16;6228669;27;96483;-59
2023/03/10 00:47:31;;;;;;;;;36.00;33.00;;;;;10.93;61.16;97116.13;6304841;27;96676;-61
2023/03/10 00:50:35;;;;;;;;;38.00;33.75;;;;;11.06;60.79;97122.88;6240704;27;99029;-60
2023/03/10 00:53:40;;;;;;;;;38.00;33.00;;;;;11.03;60.75;97129.63;6245940;27;96447;-61
2023/03/10 00:56:44;;;;;;;;;34.80;30.80;;;;;11.02;61.75;97113.72;6299833;27;96770;-60
2023/03/10 00:59:51;;;;;;;;;27.20;26.00;;;;;11.09;62.25;97106.19;6317292;27;97086;-60
2023/03/10 01:02:54;;;;;;;;;20.50;19.50;;;;;11.25;62.50;97103.22;6243722;27;96320;-60
2023/03/10 01:05:58;;;;;;;;;22.80;19.40;;;;;11.42;62.82;97102.97;6296255;27;97400;-59
2023/03/10 01:09:01;;;;;;;;;17.60;15.60;;;;;11.53;63.11;97104.56;6312915;27;96473;-60
2023/03/10 01:12:07;;;;;;;;;15.00;13.00;;;;;11.68;62.62;97101.03;6239119;27;96749;-60
2023/03/10 01:15:12;;;;;;;;;12.00;11.00;;;;;11.79;62.59;97102.69;6284014;27;96357;-60
2023/03/10 01:18:17;;;;;;;;;13.67;12.00;;;;;11.93;62.19;97102.91;6330399;27;96477;-60
2023/03/10 01:21:24;;;;;;;;;10.00;9.00;;;;;11.96;61.88;97096.97;6246039;27;96792;-60
2023/03/10 01:24:27;;;;;;;;;11.00;10.00;;;;;12.11;61.80;97105.06;6327082;27;96381;-61
2023/03/10 01:27:32;;;;;;;;;10.00;9.50;;;;;12.19;61.46;97087.44;6265714;27;96179;-60
2023/03/10 01:30:35;;;;;;;;;8.75;8.00;;;;;12.36;61.00;97090.66;6268960;27;96824;-59
2023/03/10 01:33:40;;;;;;;;;11.00;10.60;;;;;12.45;60.36;97094.38;6228739;27;96242;-60
2023/03/10 01:36:43;;;;;;;;;9.00;9.00;;;;;12.57;59.52;97092.97;6279102;27;98413;-59
2023/03/10 01:39:48;;;;;;;;;8.40;8.00;;;;;12.68;59.22;97088.31;6303804;27;96519;-60
2023/03/10 01:42:53;;;;;;;;;6.20;6.20;;;;;12.76;58.80;97089.63;6230842;27;96278;-60
2023/03/10 01:46:38;;;;;;;;;9.40;9.00;;;;;12.83;58.17;97080.13;6247069;27;96828;-58
2023/03/10 01:49:46;;;;;;;;;7.00;6.00;;;;;12.85;57.76;97079.84;6286410;27;96337;-59
2023/03/10 01:52:57;;;;;;;;;6.00;5.00;;;;;12.97;57.25;97070.28;6239696;27;96259;-60
2023/03/10 01:56:04;;;;;;;;;7.40;7.00;;;;;13.06;56.83;97072.38;6254830;27;99024;-60
2023/03/10 01:59:10;;;;;;;;;10.00;9.40;;;;;13.09;56.16;97067.25;6290938;27;96423;-60
2023/03/10 02:02:13;;;;;;;;;9.00;6.00;;;;;13.05;56.08;97049.94;6302149;27;98331;-60
2023/03/10 02:05:17;;;;;;;;;5.00;5.00;;;;;13.12;55.88;97057.78;6263359;27;96205;-59
2023/03/10 02:08:23;;;;;;;;;6.25;6.00;;;;;13.16;55.86;97053.41;6339297;27;96259;-60
2023/03/10 02:11:27;;;;;;;;;5.50;5.00;;;;;13.02;55.44;97043.22;6252857;27;96217;-59
2023/03/10 02:14:34;;;;;;;;;5.00;4.00;;;;;13.07;55.17;97047.78;6271786;27;98393;-59
2023/03/10 02:17:40;;;;;;;;;5.00;5.00;;;;;13.10;55.16;97058.00;6304992;27;96315;-60
2023/03/10 02:20:54;;;;;;;;;9.00;7.00;;;;;13.16;55.00;97054.22;6234225;27;96875;-59
2023/03/10 02:24:05;;;;;;;;;4.00;4.00;;;;;13.15;54.97;97059.91;6319115;27;96207;-59
2023/03/10 02:27:16;;;;;;;;;4.40;4.00;;;;;13.27;54.86;97058.47;6304881;27;96402;-60
2023/03/10 02:30:24;;;;;;;;;2.00;2.00;;;;;13.22;54.63;97050.38;6262737;27;96906;-61
2023/03/10 02:33:30;;;;;;;;;3.40;3.00;;;;;13.24;54.59;97063.66;6286147;27;96310;-60
2023/03/10 02:36:34;;;;;;;;;4.00;3.80;;;;;13.24;54.36;97056.31;6296705;27;96077;-60
2023/03/10 02:39:38;;;;;;;;;3.00;3.00;;;;;13.36;54.10;97061.38;6277878;27;96256;-60
2023/03/10 02:42:43;;;;;;;;;3.50;2.00;;;;;13.37;53.88;97057.56;6324659;27;96340;-60
2023/03/10 02:45:49;;;;;;;;;3.00;3.00;;;;;13.36;53.91;97045.94;6268870;27;96917;-60
2023/03/10 02:48:53;;;;;;;;;3.00;3.00;;;;;13.29;53.68;97045.44;6267791;27;96891;-60
2023/03/10 02:52:04;;;;;;;;;4.00;4.00;;;;;13.36;53.56;97028.88;6296003;27;96319;-60
2023/03/10 02:55:15;;;;;;;;;3.00;3.00;;;;;13.42;53.29;97036.69;6340640;27;96694;-61
2023/03/10 02:58:21;;;;;;;;;2.75;2.75;;;;;13.41;52.84;97016.13;6273830;27;96264;-60
2023/03/10 03:01:26;;;;;;;;;5.00;5.00;;;;;13.38;52.95;97029.44;6281219;27;96625;-60
2023/03/10 03:04:30;;;;;;;;;2.00;2.00;;;;;13.43;53.01;97030.19;6289374;27;96590;-60
2023/03/10 03:07:35;;;;;;;;;3.00;3.00;;;;;13.40;52.79;97019.91;6304496;27;96275;-61
2023/03/10 03:10:39;;;;;;;;;6.00;5.00;;;;;13.47;52.65;97021.50;6262450;27;96322;-60
2023/03/10 03:13:45;;;;;;;;;4.75;4.75;;;;;13.37;52.84;97022.38;6304566;27;96216;-60
2023/03/10 03:16:48;;;;;;;;;5.00;4.00;;;;;13.37;52.71;97009.66;6340013;27;96293;-60
2023/03/10 03:19:53;;;;;;;;;4.40;4.00;;;;;13.46;52.52;97001.72;6264934;27;96195;-60
2023/03/10 03:22:58;;;;;;;;;3.60;3.60;;;;;13.49;52.46;96997.66;6251510;27;96782;-59
2023/03/10 03:26:02;;;;;;;;;4.00;3.60;;;;;13.48;52.19;96991.44;6267913;27;96529;-59
2023/03/10 03:29:09;;;;;;;;;2.20;2.00;;;;;13.48;52.05;96991.44;6268261;27;96361;-60
2023/03/10 03:32:13;;;;;;;;;4.00;3.00;;;;;13.47;52.04;96989.81;6236508;27;97731;-60
2023/03/10 03:35:21;;;;;;;;;4.00;4.00;;;;;13.35;52.14;96976.66;6274826;27;96263;-59
2023/03/10 03:38:24;;;;;;;;;5.00;5.00;;;;;13.46;51.92;96980.06;6290808;27;96328;-59
2023/03/10 03:41:28;;;;;;;;;5.00;5.00;;;;;13.43;52.11;96984.19;6277473;27;96315;-59
2023/03/10 03:44:33;;;;;;;;;3.00;3.00;;;;;13.44;51.95;96985.78;6285419;27;97087;-59
2023/03/10 03:47:36;;;;;;;;;4.00;4.00;;;;;13.53;51.83;96980.56;6305442;27;96396;-60
2023/03/10 03:50:40;;;;;;;;;3.25;3.00;;;;;13.52;51.82;96981.66;6250741;27;96296;-60
2023/03/10 03:53:53;;;;;;;;;3.00;3.00;;;;;13.45;51.68;96979.28;6321021;27;96273;-60
2023/03/10 03:56:57;;;;;;;;;4.00;4.00;;;;;13.55;51.84;96977.53;6311023;27;96214;-59
2023/03/10 04:00:06;;;;;;;;;2.00;2.00;;;;;13.52;51.63;96973.53;6287594;27;96894;-59
2023/03/10 04:03:14;;;;;;;;;3.00;3.00;;;;;13.51;51.74;96976.50;6247280;27;96311;-59
2023/03/10 04:06:18;;;;;;;;;3.00;3.00;;;;;13.40;51.59;96951.44;6321945;27;96310;-60
2023/03/10 04:09:22;;;;;;;;;2.00;2.00;;;;;13.44;51.68;96966.81;6247268;27;96777;-60
2023/03/10 04:12:28;;;;;;;;;2.00;2.00;;;;;13.22;51.74;96946.75;6289970;27;96206;-59
2023/03/10 04:15:35;;;;;;;;;3.00;3.00;;;;;13.22;51.79;96942.16;6306687;27;96593;-60
2023/03/10 04:18:39;;;;;;;;;1.60;1.20;;;;;13.25;51.76;96948.88;6279141;27;98174;-59
2023/03/10 04:21:44;;;;;;;;;3.00;3.00;;;;;13.19;51.69;96942.75;6248218;27;98347;-60
2023/03/10 04:24:49;;;;;;;;;4.00;4.00;;;;;13.19;51.61;96941.94;6285901;27;96618;-60
2023/03/10 04:27:52;;;;;;;;;3.00;3.00;;;;;13.13;51.86;96938.47;6323281;27;96258;-60
2023/03/10 04:30:57;;;;;;;;;2.00;2.00;;;;;13.12;51.42;96931.44;6272288;27;98244;-58
2023/03/10 04:34:05;;;;;;;;;3.00;2.00;;;;;13.15;51.25;96933.56;6289047;27;96221;-60
2023/03/10 04:37:09;;;;;;;;;3.40;3.00;;;;;13.21;51.30;96929.72;6246801;27;96617;-59
2023/03/10 04:40:14;;;;;;;;;2.00;2.00;;;;;13.21;51.18;96926.22;6279333;27;98316;-60
2023/03/10 04:43:18;;;;;;;;;4.00;4.00;;;;;13.21;51.09;96908.06;6306698;27;96362;-59
2023/03/10 04:46:23;;;;;;;;;3.00;3.00;;;;;13.32;51.03;96903.38;6232616;27;97241;-61
2023/03/10 04:49:27;;;;;;;;;2.40;2.00;;;;;13.25;50.87;96897.47;6295347;27;96287;-60
2023/03/10 04:52:30;;;;;;;;;3.00;3.00;;;;;13.25;50.88;96906.41;6272699;27;98820;-60
2023/03/10 04:55:34;;;;;;;;;2.50;2.00;;;;;13.09;50.83;96887.91;6282809;27;98510;-60
2023/03/10 04:58:40;;;;;;;;;4.00;4.00;;;;;13.20;51.07;96905.66;6301013;27;96301;-59
2023/03/10 05:01:45;;;;;;;;;3.00;3.00;;;;;13.10;51.24;96897.59;6257528;27;97336;-60
2023/03/10 05:04:49;;;;;;;;;1.20;1.20;;;;;13.17;51.19;96892.69;6295010;27;96756;-60
2023/03/10 05:07:53;;;;;;;;;2.00;2.00;;;;;13.11;51.27;96888.41;6268546;27;96291;-61
2023/03/10 05:10:57;;;;;;;;;2.00;1.00;;;;;13.16;51.56;96896.50;6289732;27;96605;-59
2023/03/10 05:14:02;;;;;;;;;3.00;2.00;;;;;13.14;51.29;96883.28;6246837;27;96247;-60
2023/03/10 05:17:07;;;;;;;;;2.20;2.00;;;;;13.21;51.17;96891.03;6287569;27;96577;-60
2023/03/10 05:20:13;;;;;;;;;2.60;2.60;;;;;13.11;50.77;96877.56;6295487;27;96321;-60
2023/03/10 05:23:16;;;;;;;;;4.40;4.00;;;;;13.28;50.83;96889.63;6277919;27;96820;-59
2023/03/10 05:26:20;;;;;;;;;4.00;3.00;;;;;13.36;50.69;96888.97;6288492;27;98388;-60
2023/03/10 05:29:23;;;;;;;;;1.25;1.00;;;;;13.43;50.59;96880.50;6229547;27;96596;-60
2023/03/10 05:32:35;;;;;;;;;2.75;2.75;;;;;13.42;50.44;96889.72;6333611;27;96278;-60
2023/03/10 05:35:39;;;;;;;;;3.80;3.00;;;;;13.58;49.89;96874.94;6272843;27;96226;-60
2023/03/10 05:38:44;;;;;;;;;1.00;1.00;;;;;13.73;49.87;96880.13;6285213;27;96567;-59
2023/03/10 05:41:49;;;;;;;;;3.00;3.00;;;;;13.80;49.51;96869.75;6310657;27;96832;-60
2023/03/10 05:44:53;;;;;;;;;4.00;4.00;;;;;13.92;49.23;96873.94;6273416;27;96538;-59
2023/03/10 05:47:58;;;;;;;;;5.00;5.00;;;;;14.05;48.91;96874.00;6291776;27;96856;-59
2023/03/10 05:51:04;;;;;;;;;3.40;3.00;;;;;14.16;48.54;96878.19;6268341;27;96493;-59
2023/03/10 05:54:08;;;;;;;;;3.00;3.00;;;;;14.26;48.46;96858.28;6293150;27;98518;-58
2023/03/10 05:57:12;;;;;;;;;6.00;5.00;;;;;14.33;48.12;96837.81;6290750;27;98381;-60
2023/03/10 06:00:18;;;;;;;;;3.00;3.00;;;;;14.52;47.63;96850.56;6292425;27;97588;-60
2023/03/10 06:03:32;;;;;;;;;3.60;3.40;;;;;14.51;47.40;96844.34;6277434;27;96506;-59
2023/03/10 06:06:36;;;;;;;;;4.00;4.00;;;;;14.64;46.84;96846.28;6286916;27;96442;-59
2023/03/10 06:09:39;;;;;;;;;3.40;3.40;;;;;14.69;46.75;96838.06;6245586;27;96761;-60
2023/03/10 06:12:43;;;;;;;;;3.00;3.00;;;;;14.76;46.70;96818.69;6233786;27;96200;-59
2023/03/10 06:15:50;;;;;;;;;3.00;3.00;;;;;14.83;46.32;96829.16;6282433;27;98884;-59
2023/03/10 06:18:55;;;;;;;;;4.00;4.00;;;;;15.01;46.05;96830.97;6270603;27;96525;-61
2023/03/10 06:21:58;;;;;;;;;4.40;3.00;;;;;15.08;45.10;96834.13;6230915;27;96555;-59
2023/03/10 06:25:02;;;;;;;;;2.40;2.40;;;;;15.39;45.25;96831.63;6226419;27;96244;-60
2023/03/10 06:28:05;;;;;;;;;4.00;4.00;;;;;15.54;45.01;96823.97;6242400;27;96360;-61
2023/03/10 06:31:14;;;;;;;;;4.25;4.00;;;;;15.75;44.18;96820.84;6302902;27;97813;-60
2023/03/10 06:34:19;;;;;;;;;3.50;3.00;;;;;16.00;43.92;96826.50;6286510;27;96266;-60
2023/03/10 06:37:23;;;;;;;;;5.00;5.00;;;;;16.12;43.27;96826.00;6223138;27;96458;-60
2023/03/10 06:40:26;;;;;;;;;4.00;3.60;;;;;16.15;43.08;96800.91;6278185;27;99286;-60
2023/03/10 06:43:31;;;;;;;;;3.75;3.75;;;;;16.61;41.68;96811.50;6228032;27;96472;-60
2023/03/10 06:46:34;;;;;;;;;5.00;5.00;;;;;16.99;40.84;96809.16;6239627;27;96358;-61
2023/03/10 06:49:39;;;;;;;;;4.00;4.00;;;;;17.33;40.05;96803.03;6236098;27;96366;-59
2023/03/10 06:52:42;;;;;;;;;3.00;3.00;;;;;17.64;38.95;96806.50;6276435;27;96627;-60
2023/03/10 06:55:46;;;;;;;;;3.50;3.00;;;;;18.13;38.54;96791.63;6290427;27;96756;-60
2023/03/10 06:58:49;;;;;;;;;3.00;3.00;;;;;18.75;37.03;96798.69;6300861;27;96250;-60
2023/03/10 07:01:53;;;;;;;;;2.25;2.00;;;;;19.92;35.98;96792.53;6247496;27;97026;-60
2023/03/10 07:04:58;;;;;;;;;2.00;2.00;;;;;20.41;34.19;96797.16;6284848;27;96175;-61
2023/03/10 07:08:01;;;;;;;;;3.00;3.00;;;;;20.31;34.65;96781.94;6330734;27;96954;-60
2023/03/10 07:11:05;;;;;;;;;3.00;3.00;;;;;20.49;33.92;96790.78;6262080;27;97846;-60
2023/03/10 07:14:08;;;;;;;;;2.00;2.00;;;;;20.52;33.02;96783.84;6336517;27;99868;-61
2023/03/10 07:17:11;;;;;;;;;4.00;3.40;;;;;21.16;32.83;96773.97;6248184;27;97246;-61
2023/03/10 07:20:16;;;;;;;;;3.00;3.00;;;;;21.77;31.23;96763.00;6241112;27;96279;-60
2023/03/10 07:23:20;;;;;;;;;1.60;1.60;;;;;23.27;28.78;96764.06;6250602;27;96816;-60
2023/03/10 07:26:23;;;;;;;;;3.80;3.80;;;;;24.81;26.68;96761.59;6295339;27;96160;-60
2023/03/10 07:29:26;;;;;;;;;2.00;2.00;;;;;26.26;24.32;96752.91;6251424;27;96584;-61
2023/03/10 07:32:30;;;;;;;;;3.00;2.40;;;;;27.04;24.23;96750.25;6294718;27;96729;-59
2023/03/10 07:35:35;;;;;;;;;1.00;1.00;;;;;27.58;23.51;96742.06;6299366;27;96755;-59
2023/03/10 07:38:39;;;;;;;;;2.00;2.00;;;;;27.73;23.09;96744.91;6313758;27;96934;-59
2023/03/10 07:41:43;;;;;;;;;1.00;1.00;;;;;27.74;22.40;96719.63;6309446;27;96903;-60
2023/03/10 07:44:46;;;;;;;;;4.40;4.00;;;;;28.66;21.99;96735.91;6297168;27;98573;-59
2023/03/10 07:47:50;;;;;;;;;2.50;2.00;;;;;28.96;21.00;96725.31;6270347;27;96335;-59
2023/03/10 07:50:58;;;;;;;;;2.00;2.00;;;;;28.87;20.60;96735.19;6281185;27;96348;-61
2023/03/10 07:54:02;;;;;;;;;3.00;2.75;;;;;28.73;20.59;96724.88;6321006;27;96275;-61
2023/03/10 07:57:05;;;;;;;;;2.00;1.00;;;;;28.50;20.63;96727.91;6310531;27;97551;-60
2023/03/10 08:00:12;;;;;;;;;1.00;1.00;;;;;28.79;20.50;96720.50;6275611;27;96376;-61
2023/03/10 08:03:19;;;;;;;;;1.00;1.00;;;;;28.99;19.88;96727.28;6273441;27;96467;-61
2023/03/10 08:06:26;;;;;;;;;1.00;1.00;;;;;29.46;19.32;96708.72;6283244;27;96911;-61
2023/03/10 08:09:30;;;;;;;;;1.00;1.00;;;;;29.26;19.37;96720.19;6252264;27;96307;-61
2023/03/10 08:12:33;;;;;;;;;1.00;1.00;;;;;28.83;19.60;96719.31;6284250;27;96473;-61
2023/03/10 08:15:40;;;;;;;;;3.00;3.00;;;;;28.72;19.63;96706.63;6291280;27;96816;-61
2023/03/10 08:18:45;;;;;;;;;1.00;1.00;;;;;29.21;19.56;96701.16;6282295;27;97181;-61
2023/03/10 08:21:52;;;;;;;;;2.00;2.00;;;;;29.49;19.58;96692.03;6313491;27;97446;-61
2023/03/10 08:24:58;;;;;;;;;3.00;2.00;;;;;29.44;19.33;96691.66;6291081;27;96822;-61
2023/03/10 08:28:01;;;;;;;;;1.00;1.00;;;;;29.44;18.90;96686.91;6260292;27;99025;-61
2023/03/10 08:31:08;;;;;;;;;3.00;3.00;;;;;29.02;18.58;96692.44;6313596;27;96769;-61
2023/03/10 08:34:12;;;;;;;;;1.00;1.00;;;;;28.40;19.53;96684.34;6278183;27;97143;-61
2023/03/10 08:37:17;;;;;;;;;2.00;1.60;;;;;28.75;19.31;96681.69;6279985;27;97054;-60
2023/03/10 08:40:21;;;;;;;;;2.00;2.00;;;;;28.87;19.38;96676.97;6299987;27;96414;-60
2023/03/10 08:43:24;;;;;;;;;2.00;1.40;;;;;29.16;19.93;96693.22;6278388;27;96343;-61
2023/03/10 08:46:31;;;;;;;;;2.60;2.60;;;;;28.56;18.91;96681.22;6298035;27;96325;-61
2023/03/10 08:49:36;;;;;;;;;1.60;1.60;;;;;29.43;19.05;96665.88;6247091;27;96781;-61
2023/03/10 08:52:41;;;;;;;;;3.00;2.00;;;;;28.85;18.56;96685.66;6240208;27;96665;-60
2023/03/10 08:55:44;;;;;;;;;1.00;1.00;;;;;29.08;19.38;96686.06;6247635;27;96327;-60
2023/03/10 08:58:48;;;;;;;;;3.00;3.00;;;;;28.36;19.39;96683.53;6295380;27;98388;-61
2023/03/10 09:01:51;;;;;;;;;2.20;2.20;;;;;28.38;19.78;96662.56;6247909;27;96384;-62
2023/03/10 09:04:55;;;;;;;;;2.00;2.00;;;;;28.78;19.61;96655.94;6291559;27;96780;-61
2023/03/10 09:08:00;;;;;;;;;3.00;3.00;;;;;29.26;19.78;96670.25;6245843;27;96266;-60
2023/03/10 09:11:04;;;;;;;;;2.00;2.00;;;;;29.73;18.81;96670.97;6238031;27;96325;-62
2023/03/10 09:14:09;;;;;;;;;1.00;1.00;;;;;30.28;18.71;96670.41;6303768;27;98535;-61
2023/03/10 09:17:13;;;;;;;;;1.00;1.00;;;;;29.72;18.96;96661.06;6241210;27;96771;-61
2023/03/10 09:20:16;;;;;;;;;2.00;2.00;;;;;29.09;19.86;96653.56;6286504;27;99027;-61
2023/03/10 09:23:21;;;;;;;;;1.20;1.20;;;;;28.39;19.99;96666.16;6242123;27;96820;-61
2023/03/10 09:26:24;;;;;;;;;3.00;2.00;;;;;27.65;21.67;96668.56;6239938;27;97482;-60
2023/03/10 09:29:27;;;;;;;;;1.80;1.80;;;;;26.63;22.50;96660.97;6245617;27;96827;-61
2023/03/10 09:32:45;;;;;;;;;3.00;3.00;;;;;26.42;23.00;96660.75;6239915;27;96315;-60
2023/03/10 09:35:49;;;;;;;;;2.80;2.80;;;;;26.05;23.45;96647.66;6291253;27;96556;-61
2023/03/10 09:39:10;;;;;;;;;2.00;2.00;;;;;25.67;23.29;96665.31;6295462;27;96804;-61
2023/03/10 09:42:36;;;;;;;;;3.00;2.67;;;;;25.74;23.65;96648.09;6239528;27;96952;-61
2023/03/10 09:45:45;;;;;;;;;3.40;3.40;;;;;25.60;24.20;96651.44;6241493;27;96299;-60
2023/03/10 09:48:55;;;;;;;;;2.00;2.00;;;;;26.08;23.53;96646.13;6239996;27;97168;-61
2023/03/10 09:52:03;;;;;;;;;2.50;2.50;;;;;26.45;23.40;96638.69;6328387;27;96244;-60
2023/03/10 09:55:21;;;;;;;;;4.00;4.00;;;;;26.24;23.48;96632.94;6261521;27;96419;-61
2023/03/10 09:58:32;;;;;;;;;3.60;3.60;;;;;25.55;23.90;96673.84;6300424;27;96931;-61
2023/03/10 10:01:35;;;;;;;;;2.00;2.00;;;;;25.41;24.07;96646.78;6278835;27;96792;-61
2023/03/10 10:04:42;;;;;;;;;1.00;1.00;;;;;25.22;24.80;96652.41;6270709;27;96646;-63
2023/03/10 10:07:50;;;;;;;;;4.00;4.00;;;;;25.09;25.11;96629.00;6267417;27;97317;-62
2023/03/10 10:10:57;;;;;;;;;1.00;1.00;;;;;25.26;24.54;96630.44;6223396;27;96749;-62
2023/03/10 10:14:14;;;;;;;;;2.00;2.00;;;;;26.43;23.44;96604.31;6288829;27;98993;-62
2023/03/10 10:17:53;;;;;;;;;2.00;2.00;;;;;27.15;22.53;96624.72;6274270;27;97047;-62
2023/03/10 10:21:15;;;;;;;;;2.00;2.00;;;;;27.30;22.10;96655.25;6282002;27;96962;-62
2023/03/10 10:24:20;;;;;;;;;1.00;1.00;;;;;27.39;22.48;96630.78;6219764;27;96460;-60
2023/03/10 10:27:24;;;;;;;;;2.00;2.00;;;;;27.55;22.31;96651.50;6238814;27;96327;-61
2023/03/10 10:30:32;;;;;;;;;3.00;2.40;;;;;27.33;22.31;96599.13;6275740;27;99114;-61
2023/03/10 10:33:52;;;;;;;;;2.00;2.00;;;;;27.44;21.63;96609.09;6290904;27;97044;-61
2023/03/10 10:36:56;;;;;;;;;2.40;2.40;;;;;27.42;22.45;96607.88;6265298;27;98751;-62
2023/03/10 10:40:00;;;;;;;;;1.40;1.40;;;;;27.08;21.93;96594.22;6318683;27;96404;-61
2023/03/10 10:43:06;;;;;;;;;4.00;3.00;;;;;26.84;22.93;96605.88;6231385;27;96270;-61
2023/03/10 10:46:12;;;;;;;;;2.00;2.00;;;;;27.27;22.11;96595.94;6272364;27;96571;-61
2023/03/10 10:49:22;;;;;;;;;2.00;2.00;;;;;27.79;22.37;96602.97;6250382;27;96326;-61
2023/03/10 10:52:26;;;;;;;;;3.75;3.50;;;;;27.38;22.28;96593.22;6276027;27;97089;-61
2023/03/10 10:55:33;;;;;;;;;1.75;1.75;;;;;26.90;22.57;96575.94;6281909;27;96108;-62
2023/03/10 10:58:39;;;;;;;;;2.00;2.00;;;;;26.91;22.32;96591.34;6290251;27;96411;-61
2023/03/10 11:01:52;;;;;;;;;2.00;1.20;;;;;26.45;22.65;96574.34;6293592;27;96350;-61
2023/03/10 11:05:06;;;;;;;;;1.00;1.00;;;;;26.47;22.90;96563.72;6291458;27;96585;-61
2023/03/10 11:08:18;;;;;;;;;3.00;3.00;;;;;26.76;23.10;96564.75;6231033;27;96889;-61
2023/03/10 11:11:30;;;;;;;;;3.00;3.00;;;;;27.56;21.59;96549.91;6229022;27;96221;-61
2023/03/10 11:14:48;;;;;;;;;1.75;1.75;;;;;27.39;21.96;96559.66;6230867;27;96350;-60
2023/03/10 11:17:56;;;;;;;;;2.00;2.00;;;;;27.97;21.82;96548.44;6297934;27;97501;-61
2023/03/10 11:21:07;;;;;;;;;2.40;2.40;;;;;27.64;21.58;96548.72;6230478;28;96385;-61
2023/03/10 11:24:17;;;;;;;;;2.00;2.00;;;;;27.05;22.16;96544.44;6292746;27;96644;-62
2023/03/10 11:27:26;;;;;;;;;4.00;3.00;;;;;27.08;22.15;96541.69;6231237;27;96201;-61
2023/03/10 11:30:33;;;;;;;;;3.00;3.00;;;;;27.89;22.13;96540.50;6298833;27;97617;-61
2023/03/10 11:33:46;;;;;;;;;3.40;3.40;;;;;28.66;20.76;96512.13;6280519;27;98652;-61
2023/03/10 11:36:58;;;;;;;;;3.00;2.00;;;;;29.20;20.04;96521.19;6274782;27;96259;-61
2023/03/10 11:40:18;;;;;;;;;3.67;3.67;;;;;28.89;20.77;96514.50;6336054;27;96426;-61
2023/03/10 11:43:30;;;;;;;;;3.40;3.00;;;;;29.27;19.71;96521.19;6258428;27;96781;-61
2023/03/10 11:46:43;;;;;;;;;3.00;3.00;;;;;29.90;19.84;96514.63;6260187;27;97072;-62
2023/03/10 11:49:57;;;;;;;;;2.40;2.00;;;;;29.56;20.01;96524.69;6288262;27;98399;-61
2023/03/10 11:53:06;;;;;;;;;3.00;3.00;;;;;29.76;19.64;96509.13;6296212;27;96341;-61
2023/03/10 11:56:13;;;;;;;;;3.50;3.00;;;;;29.68;19.13;96511.13;6247947;27;99115;-61
2023/03/10 11:59:21;;;;;;;;;2.00;2.00;;;;;29.61;18.73;96525.06;6300613;27;96205;-61
2023/03/10 12:02:30;;;;;;;;;4.00;4.00;;;;;29.44;19.15;96502.91;6307646;27;96287;-61
2023/03/10 12:05:44;;;;;;;;;2.00;2.00;;;;;28.25;20.66;96503.41;6266956;27;98741;-61
2023/03/10 12:08:52;;;;;;;;;3.00;3.00;;;;;27.15;21.65;96510.53;6283449;27;96776;-61
2023/03/10 12:11:56;;;;;;;;;2.00;2.00;;;;;26.78;22.23;96513.41;6252725;27;96703;-62
2023/03/10 12:15:04;;;;;;;;;2.00;2.00;;;;;26.71;22.40;96500.34;6322582;27;96651;-61
2023/03/10 12:18:09;;;;;;;;;3.40;3.40;;;;;27.36;21.91;96505.09;6265874;27;96848;-59
2023/03/10 12:21:16;;;;;;;;;2.00;2.00;;;;;27.37;21.54;96495.59;6232326;27;98807;-59
2023/03/10 12:24:42;;;;;;;;;2.50;2.00;;;;;28.22;21.08;96487.59;6270496;27;96628;-59
2023/03/10 12:28:21;;;;;;;;;2.40;2.00;;;;;28.92;19.98;96490.75;6289238;27;96260;-59
2023/03/10 12:31:46;;;;;;;;;3.00;3.00;;;;;28.93;19.82;96479.22;6244965;27;96435;-59
2023/03/10 12:35:33;;;;;;;;;4.00;4.00;;;;;27.96;19.93;96480.38;6218217;27;96402;-59
2023/03/10 12:38:43;;;;;;;;;2.80;2.80;;;;;26.76;21.89;96477.09;6266865;27;96893;-60
2023/03/10 12:41:48;;;;;;;;;3.00;3.00;;;;;26.97;21.72;96480.03;6205535;27;96383;-60
2023/03/10 12:44:55;;;;;;;;;5.00;5.00;;;;;26.80;21.70;96482.63;6205720;27;96432;-59
2023/03/10 12:48:04;;;;;;;;;3.00;2.00;;;;;26.72;22.13;96477.06;6207312;27;96461;-59
2023/03/10 12:51:13;;;;;;;;;2.80;2.00;;;;;26.23;22.50;96471.97;6272393;27;98033;-59
2023/03/10 12:54:42;;;;;;;;;3.00;3.00;;;;;26.10;22.52;96464.31;6265810;27;98497;-59
2023/03/10 12:57:58;;;;;;;;;3.00;3.00;;;;;25.53;23.15;96474.75;6200438;27;96342;-60
2023/03/10 13:01:06;;;;;;;;;6.00;5.00;;;;;25.62;23.12;96468.97;6190519;28;96361;-60
2023/03/10 13:04:16;;;;;;;;;2.50;2.50;;;;;25.78;23.42;96478.59;6269562;27;96679;-59
2023/03/10 13:07:19;;;;;;;;;3.00;3.00;;;;;25.95;23.49;96468.13;6274336;27;97180;-59
2023/03/10 13:10:27;;;;;;;;;3.00;3.00;;;;;26.27;23.05;96478.31;6194272;28;96210;-59
2023/03/10 13:13:34;;;;;;;;;2.00;2.00;;;;;26.19;22.93;96493.19;6274939;27;96643;-59
2023/03/10 13:16:37;;;;;;;;;2.00;2.00;;;;;25.75;23.00;96470.31;6207756;28;97041;-59
2023/03/10 13:19:41;;;;;;;;;3.00;3.00;;;;;25.49;23.54;96467.59;6208474;28;96162;-59
2023/03/10 13:22:53;;;;;;;;;5.00;4.00;;;;;25.18;24.00;96468.81;6200756;28;96989;-59
2023/03/10 13:26:00;;;;;;;;;4.00;4.00;;;;;24.49;24.96;96474.50;6209941;28;96337;-59
2023/03/10 13:29:03;;;;;;;;;4.00;4.00;;;;;24.15;25.49;96481.81;6262043;27;96666;-59
2023/03/10 13:32:18;;;;;;;;;2.20;2.20;;;;;23.66;25.64;96478.16;6211609;28;96406;-59
2023/03/10 13:35:24;;;;;;;;;3.00;3.00;;;;;23.27;26.59;96480.94;6206670;28;96284;-59
2023/03/10 13:38:27;;;;;;;;;2.50;2.50;;;;;23.06;26.62;96496.19;6211522;28;96269;-59
2023/03/10 13:41:36;;;;;;;;;4.20;3.00;;;;;22.69;27.35;96501.22;6259789;27;96400;-59
2023/03/10 13:44:43;;;;;;;;;4.00;4.00;;;;;22.50;27.78;96495.69;6211262;28;96248;-59
2023/03/10 13:47:46;;;;;;;;;3.00;3.00;;;;;22.20;28.12;96496.16;6211120;28;96483;-59
2023/03/10 13:51:04;;;;;;;;;4.00;4.00;;;;;22.08;28.33;96504.47;6197700;28;96968;-59
2023/03/10 13:54:20;;;;;;;;;2.00;2.00;;;;;22.01;28.47;96485.09;6210762;28;96987;-59
2023/03/10 13:57:30;;;;;;;;;3.00;3.00;;;;;22.14;28.78;96481.09;6255599;27;98368;-58
2023/03/10 14:00:34;;;;;;;;;4.40;4.00;;;;;22.07;28.37;96486.41;6270160;27;98459;-58
2023/03/10 14:03:38;;;;;;;;;3.00;3.00;;;;;22.14;28.76;96472.84;6205726;28;96526;-58
2023/03/10 14:06:41;;;;;;;;;3.20;3.00;;;;;22.11;28.86;96475.53;6202606;28;96497;-59
2023/03/10 14:09:46;;;;;;;;;3.00;3.00;;;;;21.99;28.77;96465.47;6209084;28;96473;-59
2023/03/10 14:12:53;;;;;;;;;4.80;4.20;;;;;22.17;28.57;96463.13;6255015;27;97355;-59
2023/03/10 14:15:56;;;;;;;;;3.40;3.40;;;;;22.08;28.46;96459.78;6235120;27;97040;-59
2023/03/10 14:18:59;;;;;;;;;3.00;2.60;;;;;22.11;28.81;96467.28;6271395;27;96331;-59
2023/03/10 14:22:03;;;;;;;;;3.00;3.00;;;;;22.08;28.74;96457.84;6277881;27;96670;-59
2023/03/10 14:25:12;;;;;;;;;2.00;2.00;;;;;22.10;28.96;96452.78;6209893;28;96464;-59
2023/03/10 14:28:21;;;;;;;;;2.00;2.00;;;;;22.22;28.75;96458.19;6210329;28;96261;-59
2023/03/10 14:31:25;;;;;;;;;3.00;3.00;;;;;22.15;28.34;96452.50;6274963;27;96706;-59
2023/03/10 14:34:28;;;;;;;;;5.00;4.00;;;;;22.23;28.72;96437.03;6185040;28;96274;-59
2023/03/10 14:37:31;;;;;;;;;2.40;2.00;;;;;22.10;28.40;96441.81;6260238;27;98379;-59